sensor_id;sensor_type;location;lat;lon;timestamp;temperature;humidity
1309;DHT22;647;48.840;9.314;2023-02-20T10:23:59;14.20;99.90
1309;DHT22;647;48.840;9.314;2023-02-20T10:26:30;16.60;99.90
1309;DHT22;647;48.840;9.314;2023-02-20T10:29:09;16.40;99.90
1309;DHT22;647;48.840;9.314;2023-02-20T10:31:46;15.10;99.90
1309;DHT22;647;48.840;9.314;2023-02-20T10:34:17;15.30;99.90
1309;DHT22;647;48.840;9.314;2023-02-20T10:36:49;15.40;99.90
1309;DHT22;647;48.840;9.314;2023-02-20T10:39:19;15.80;99.90
1309;DHT22;647;48.840;9.314;2023-02-20T10:41:50;17.20;99.90
1309;DHT22;647;48.840;9.314;2023-02-20T10:44:23;17.10;99.90
1309;DHT22;647;48.840;9.314;2023-02-20T10:46:57;16.90;99.90
1309;DHT22;647;48.840;9.314;2023-02-20T10:49:32;15.90;99.90
1309;DHT22;647;48.840;9.314;2023-02-20T10:52:04;17.40;99.90
1309;DHT22;647;48.840;9.314;2023-02-20T10:54:35;17.70;99.90
1309;DHT22;647;48.840;9.314;2023-02-20T10:57:07;17.50;99.90
1309;DHT22;647;48.840;9.314;2023-02-20T10:59:42;17.00;99.90
1309;DHT22;647;48.840;9.314;2023-02-20T11:02:15;18.30;99.90
1309;DHT22;647;48.840;9.314;2023-02-20T11:04:49;19.40;99.90
1309;DHT22;647;48.840;9.314;2023-02-20T11:07:19;18.50;99.90
1309;DHT22;647;48.840;9.314;2023-02-20T11:09:46;18.40;99.90
1309;DHT22;647;48.840;9.314;2023-02-20T11:12:22;17.80;99.90
1309;DHT22;647;48.840;9.314;2023-02-20T11:14:52;17.30;99.90
1309;DHT22;647;48.840;9.314;2023-02-20T11:17:24;18.40;99.90
1309;DHT22;647;48.840;9.314;2023-02-20T11:19:53;19.80;99.90
1309;DHT22;647;48.840;9.314;2023-02-20T11:22:39;19.70;99.90
1309;DHT22;647;48.840;9.314;2023-02-20T11:25:15;21.40;99.90
1309;DHT22;647;48.840;9.314;2023-02-20T11:27:43;21.50;99.90
1309;DHT22;647;48.840;9.314;2023-02-20T11:32:49;23.80;99.90
1309;DHT22;647;48.840;9.314;2023-02-20T11:35:27;22.00;99.90
1309;DHT22;647;48.840;9.314;2023-02-20T11:38:23;21.10;99.90
1309;DHT22;647;48.840;9.314;2023-02-20T11:44:05;24.20;99.90
1309;DHT22;647;48.840;9.314;2023-02-20T11:46:32;21.70;99.90
1309;DHT22;647;48.840;9.314;2023-02-20T11:49:03;22.20;99.90
1309;DHT22;647;48.840;9.314;2023-02-20T11:51:34;23.30;99.90
1309;DHT22;647;48.840;9.314;2023-02-20T11:54:14;23.00;99.90
1309;DHT22;647;48.840;9.314;2023-02-20T11:56:56;22.70;99.90
1309;DHT22;647;48.840;9.314;2023-02-20T12:04:38;22.60;99.90
1309;DHT22;647;48.840;9.314;2023-02-20T12:07:18;23.40;99.90
1309;DHT22;647;48.840;9.314;2023-02-20T12:09:53;21.00;99.90
1309;DHT22;647;48.840;9.314;2023-02-20T12:12:20;20.70;99.90
1309;DHT22;647;48.840;9.314;2023-02-20T12:17:22;22.00;99.90
1309;DHT22;647;48.840;9.314;2023-02-20T12:27:48;22.20;99.90
1309;DHT22;647;48.840;9.314;2023-02-20T12:33:00;23.20;99.90
1309;DHT22;647;48.840;9.314;2023-02-20T12:43:24;23.60;99.90
1309;DHT22;647;48.840;9.314;2023-02-20T12:56:27;24.50;99.90
1309;DHT22;647;48.840;9.314;2023-02-20T12:59:03;25.70;99.90
1309;DHT22;647;48.840;9.314;2023-02-20T13:01:33;23.90;99.90
1309;DHT22;647;48.840;9.314;2023-02-20T13:04:04;25.60;99.90
1309;DHT22;647;48.840;9.314;2023-02-20T13:06:38;27.30;99.90
1309;DHT22;647;48.840;9.314;2023-02-20T13:09:15;26.10;99.90
1309;DHT22;647;48.840;9.314;2023-02-20T13:11:46;25.30;99.90
1309;DHT22;647;48.840;9.314;2023-02-20T13:14:24;26.70;99.90
1309;DHT22;647;48.840;9.314;2023-02-20T13:17:02;26.40;99.90
1309;DHT22;647;48.840;9.314;2023-02-20T13:19:36;27.40;99.90
1309;DHT22;647;48.840;9.314;2023-02-20T13:22:06;27.40;99.90
1309;DHT22;647;48.840;9.314;2023-02-20T13:24:34;27.60;99.90
1309;DHT22;647;48.840;9.314;2023-02-20T13:27:02;28.30;99.90
1309;DHT22;647;48.840;9.314;2023-02-20T13:29:32;27.40;99.90
1309;DHT22;647;48.840;9.314;2023-02-20T13:32:01;26.10;99.90
1309;DHT22;647;48.840;9.314;2023-02-20T13:36:58;26.60;99.90
1309;DHT22;647;48.840;9.314;2023-02-20T13:39:37;27.30;99.90
1309;DHT22;647;48.840;9.314;2023-02-20T13:42:25;26.20;99.90
1309;DHT22;647;48.840;9.314;2023-02-20T13:50:31;26.80;99.90
1309;DHT22;647;48.840;9.314;2023-02-20T13:53:04;26.10;99.90
1309;DHT22;647;48.840;9.314;2023-02-20T14:03:10;26.60;99.90
1309;DHT22;647;48.840;9.314;2023-02-20T14:10:35;25.50;99.90
1309;DHT22;647;48.840;9.314;2023-02-20T14:13:03;26.70;99.90
1309;DHT22;647;48.840;9.314;2023-02-20T14:15:42;25.20;99.90
1309;DHT22;647;48.840;9.314;2023-02-20T14:25:57;26.40;99.90
1309;DHT22;647;48.840;9.314;2023-02-20T14:31:20;25.30;99.90
1309;DHT22;647;48.840;9.314;2023-02-20T14:33:47;27.20;99.90
1309;DHT22;647;48.840;9.314;2023-02-20T14:36:41;27.20;99.90
1309;DHT22;647;48.840;9.314;2023-02-20T14:39:23;26.70;99.90
1309;DHT22;647;48.840;9.314;2023-02-20T14:41:55;24.70;99.90
1309;DHT22;647;48.840;9.314;2023-02-20T14:44:23;25.40;99.90
1309;DHT22;647;48.840;9.314;2023-02-20T14:51:50;25.40;99.90
1309;DHT22;647;48.840;9.314;2023-02-20T14:54:19;25.90;99.90
1309;DHT22;647;48.840;9.314;2023-02-20T14:56:47;25.10;99.90
1309;DHT22;647;48.840;9.314;2023-02-20T14:59:23;24.30;99.90
1309;DHT22;647;48.840;9.314;2023-02-20T15:01:51;23.10;99.90
1309;DHT22;647;48.840;9.314;2023-02-20T15:04:19;24.70;99.90
1309;DHT22;647;48.840;9.314;2023-02-20T15:06:48;23.90;99.90
1309;DHT22;647;48.840;9.314;2023-02-20T15:11:46;24.80;99.90
1309;DHT22;647;48.840;9.314;2023-02-20T15:14:19;24.10;99.90
1309;DHT22;647;48.840;9.314;2023-02-20T15:16:47;23.20;99.90
1309;DHT22;647;48.840;9.314;2023-02-20T15:24:38;24.60;99.90
1309;DHT22;647;48.840;9.314;2023-02-20T15:27:11;23.20;99.90
1309;DHT22;647;48.840;9.314;2023-02-20T15:29:40;22.60;99.90
1309;DHT22;647;48.840;9.314;2023-02-20T15:32:18;21.10;99.90
1309;DHT22;647;48.840;9.314;2023-02-20T15:34:50;20.30;99.90
1309;DHT22;647;48.840;9.314;2023-02-20T15:37:20;21.10;99.90
1309;DHT22;647;48.840;9.314;2023-02-20T15:39:48;21.20;99.90
1309;DHT22;647;48.840;9.314;2023-02-20T15:42:16;21.90;99.90
1309;DHT22;647;48.840;9.314;2023-02-20T15:44:45;21.20;99.90
1309;DHT22;647;48.840;9.314;2023-02-20T15:47:12;21.30;99.90
1309;DHT22;647;48.840;9.314;2023-02-20T15:49:39;20.90;99.90
1309;DHT22;647;48.840;9.314;2023-02-20T15:52:12;20.00;99.90
1309;DHT22;647;48.840;9.314;2023-02-20T15:54:40;20.60;99.90
1309;DHT22;647;48.840;9.314;2023-02-20T15:57:13;20.10;99.90
1309;DHT22;647;48.840;9.314;2023-02-20T15:59:41;19.00;99.90
1309;DHT22;647;48.840;9.314;2023-02-20T16:02:12;18.10;99.90
1309;DHT22;647;48.840;9.314;2023-02-20T16:04:39;17.60;99.90
1309;DHT22;647;48.840;9.314;2023-02-20T16:07:05;17.20;99.90
1309;DHT22;647;48.840;9.314;2023-02-20T16:09:32;17.30;99.90
1309;DHT22;647;48.840;9.314;2023-02-20T16:11:59;17.00;99.90
1309;DHT22;647;48.840;9.314;2023-02-20T16:14:26;16.60;99.90
1309;DHT22;647;48.840;9.314;2023-02-20T16:16:53;16.60;99.90
1309;DHT22;647;48.840;9.314;2023-02-20T16:19:22;16.50;99.90
1309;DHT22;647;48.840;9.314;2023-02-20T16:21:50;16.00;99.90
1309;DHT22;647;48.840;9.314;2023-02-20T16:24:16;15.60;99.90
1309;DHT22;647;48.840;9.314;2023-02-20T16:26:46;15.20;99.90
1309;DHT22;647;48.840;9.314;2023-02-20T16:29:16;14.60;99.90
1309;DHT22;647;48.840;9.314;2023-02-20T16:34:31;14.20;99.90
1309;DHT22;647;48.840;9.314;2023-02-20T16:36:59;13.70;99.90
1309;DHT22;647;48.840;9.314;2023-02-20T16:39:26;13.40;99.90
1309;DHT22;647;48.840;9.314;2023-02-20T16:41:53;13.20;99.90
1309;DHT22;647;48.840;9.314;2023-02-20T16:44:23;13.00;99.90
1309;DHT22;647;48.840;9.314;2023-02-20T16:46:53;12.80;99.90
1309;DHT22;647;48.840;9.314;2023-02-20T16:49:19;12.50;99.90
1309;DHT22;647;48.840;9.314;2023-02-20T16:51:48;12.10;99.90
1309;DHT22;647;48.840;9.314;2023-02-20T16:54:23;11.90;99.90
1309;DHT22;647;48.840;9.314;2023-02-20T16:56:50;11.70;99.90
1309;DHT22;647;48.840;9.314;2023-02-20T16:59:17;11.70;99.90
1309;DHT22;647;48.840;9.314;2023-02-20T17:01:46;11.60;99.90
1309;DHT22;647;48.840;9.314;2023-02-20T17:04:13;11.50;99.90
1309;DHT22;647;48.840;9.314;2023-02-20T17:06:42;11.40;99.90
1309;DHT22;647;48.840;9.314;2023-02-20T17:09:10;11.20;99.90
1309;DHT22;647;48.840;9.314;2023-02-20T17:11:37;11.00;99.90
1309;DHT22;647;48.840;9.314;2023-02-20T17:14:04;10.80;99.90
1309;DHT22;647;48.840;9.314;2023-02-20T17:16:31;10.70;99.90
1309;DHT22;647;48.840;9.314;2023-02-20T17:18:57;10.70;99.90
1309;DHT22;647;48.840;9.314;2023-02-20T17:21:24;10.60;99.90
1309;DHT22;647;48.840;9.314;2023-02-20T17:23:51;10.50;99.90
1309;DHT22;647;48.840;9.314;2023-02-20T17:26:19;10.40;99.90
1309;DHT22;647;48.840;9.314;2023-02-20T17:28:46;10.20;99.90
1309;DHT22;647;48.840;9.314;2023-02-20T17:31:13;10.00;99.90
1309;DHT22;647;48.840;9.314;2023-02-20T17:33:39;9.80;99.90
1309;DHT22;647;48.840;9.314;2023-02-20T17:36:07;9.70;99.90
1309;DHT22;647;48.840;9.314;2023-02-20T17:38:34;9.50;99.90
1309;DHT22;647;48.840;9.314;2023-02-20T17:41:00;9.30;99.90
1309;DHT22;647;48.840;9.314;2023-02-20T17:43:29;9.20;99.90
1309;DHT22;647;48.840;9.314;2023-02-20T17:45:56;9.10;99.90
1309;DHT22;647;48.840;9.314;2023-02-20T17:48:23;9.00;99.90
1309;DHT22;647;48.840;9.314;2023-02-20T17:50:50;8.90;99.90
1309;DHT22;647;48.840;9.314;2023-02-20T17:53:16;8.80;99.90
1309;DHT22;647;48.840;9.314;2023-02-20T17:55:43;8.70;99.90
1309;DHT22;647;48.840;9.314;2023-02-20T17:58:10;8.70;99.90
1309;DHT22;647;48.840;9.314;2023-02-20T18:00:38;8.60;99.90
1309;DHT22;647;48.840;9.314;2023-02-20T18:03:05;8.50;99.90
1309;DHT22;647;48.840;9.314;2023-02-20T18:05:32;8.40;99.90
1309;DHT22;647;48.840;9.314;2023-02-20T18:07:59;8.30;99.90
1309;DHT22;647;48.840;9.314;2023-02-20T18:10:26;8.30;99.90
1309;DHT22;647;48.840;9.314;2023-02-20T18:12:53;8.20;99.90
1309;DHT22;647;48.840;9.314;2023-02-20T18:15:28;8.20;99.90
1309;DHT22;647;48.840;9.314;2023-02-20T18:17:57;8.00;99.90
1309;DHT22;647;48.840;9.314;2023-02-20T18:20:23;7.90;99.90
1309;DHT22;647;48.840;9.314;2023-02-20T18:22:50;7.80;99.90
1309;DHT22;647;48.840;9.314;2023-02-20T18:27:46;7.70;99.90
1309;DHT22;647;48.840;9.314;2023-02-20T18:30:14;7.60;99.90
1309;DHT22;647;48.840;9.314;2023-02-20T18:32:41;7.50;99.90
1309;DHT22;647;48.840;9.314;2023-02-20T18:35:10;7.40;99.90
1309;DHT22;647;48.840;9.314;2023-02-20T18:44:59;7.30;99.90
1309;DHT22;647;48.840;9.314;2023-02-20T18:47:26;7.10;99.90
1309;DHT22;647;48.840;9.314;2023-02-20T18:54:48;7.10;99.90
1309;DHT22;647;48.840;9.314;2023-02-20T19:03:05;6.90;99.90
1309;DHT22;647;48.840;9.314;2023-02-20T19:08:01;6.60;99.90
1309;DHT22;647;48.840;9.314;2023-02-20T19:10:29;6.50;1.00
1309;DHT22;647;48.840;9.314;2023-02-20T19:12:56;6.40;1.00
1309;DHT22;647;48.840;9.314;2023-02-20T19:15:23;6.40;1.00
1309;DHT22;647;48.840;9.314;2023-02-20T19:20:20;6.40;1.00
1309;DHT22;647;48.840;9.314;2023-02-20T19:22:47;6.30;1.00
1309;DHT22;647;48.840;9.314;2023-02-20T19:25:17;6.10;1.00
1309;DHT22;647;48.840;9.314;2023-02-20T19:27:45;5.90;1.00
1309;DHT22;647;48.840;9.314;2023-02-20T19:30:13;5.80;1.00
1309;DHT22;647;48.840;9.314;2023-02-20T19:32:40;5.90;1.00
1309;DHT22;647;48.840;9.314;2023-02-20T19:35:07;5.90;1.00
1309;DHT22;647;48.840;9.314;2023-02-20T19:37:34;5.80;1.00
1309;DHT22;647;48.840;9.314;2023-02-20T19:40:04;5.70;1.00
1309;DHT22;647;48.840;9.314;2023-02-20T19:42:32;5.70;1.00
1309;DHT22;647;48.840;9.314;2023-02-20T19:44:59;5.60;1.00
1309;DHT22;647;48.840;9.314;2023-02-20T19:47:25;5.60;1.00
1309;DHT22;647;48.840;9.314;2023-02-20T19:49:53;5.60;1.00
1309;DHT22;647;48.840;9.314;2023-02-20T19:52:19;5.60;1.00
1309;DHT22;647;48.840;9.314;2023-02-20T20:04:36;5.30;1.00
1309;DHT22;647;48.840;9.314;2023-02-20T20:07:03;5.30;1.00
1309;DHT22;647;48.840;9.314;2023-02-20T20:09:31;5.30;1.00
1309;DHT22;647;48.840;9.314;2023-02-20T20:11:57;5.20;1.00
1309;DHT22;647;48.840;9.314;2023-02-20T20:14:24;5.20;1.00
1309;DHT22;647;48.840;9.314;2023-02-20T20:16:52;5.00;1.00
1309;DHT22;647;48.840;9.314;2023-02-20T20:19:19;5.00;1.00
1309;DHT22;647;48.840;9.314;2023-02-20T20:21:48;5.00;1.00
1309;DHT22;647;48.840;9.314;2023-02-20T20:24:15;5.10;1.00
1309;DHT22;647;48.840;9.314;2023-02-20T20:26:41;4.80;1.00
1309;DHT22;647;48.840;9.314;2023-02-20T20:29:08;4.70;1.00
1309;DHT22;647;48.840;9.314;2023-02-20T20:31:36;4.70;1.00
1309;DHT22;647;48.840;9.314;2023-02-20T20:34:05;4.80;1.00
1309;DHT22;647;48.840;9.314;2023-02-20T20:37:00;4.90;1.00
1309;DHT22;647;48.840;9.314;2023-02-20T20:44:21;4.80;1.00
1309;DHT22;647;48.840;9.314;2023-02-20T20:46:48;4.70;1.00
1309;DHT22;647;48.840;9.314;2023-02-20T20:49:16;4.80;1.00
1309;DHT22;647;48.840;9.314;2023-02-20T20:51:43;4.60;1.00
1309;DHT22;647;48.840;9.314;2023-02-20T20:54:11;4.60;1.00
1309;DHT22;647;48.840;9.314;2023-02-20T20:56:43;4.60;1.00
1309;DHT22;647;48.840;9.314;2023-02-20T20:59:11;4.50;1.00
1309;DHT22;647;48.840;9.314;2023-02-20T21:01:37;4.50;1.00
1309;DHT22;647;48.840;9.314;2023-02-20T21:04:04;4.50;1.00
1309;DHT22;647;48.840;9.314;2023-02-20T21:06:32;4.50;1.00
1309;DHT22;647;48.840;9.314;2023-02-20T21:08:59;4.50;1.00
1309;DHT22;647;48.840;9.314;2023-02-20T21:11:26;4.40;1.00
1309;DHT22;647;48.840;9.314;2023-02-20T21:13:53;4.30;1.00
1309;DHT22;647;48.840;9.314;2023-02-20T21:16:20;4.20;1.00
1309;DHT22;647;48.840;9.314;2023-02-20T21:18:47;4.20;1.00
1309;DHT22;647;48.840;9.314;2023-02-20T21:21:14;4.20;1.00
1309;DHT22;647;48.840;9.314;2023-02-20T21:23:42;4.20;1.00
1309;DHT22;647;48.840;9.314;2023-02-20T21:26:09;4.20;1.00
1309;DHT22;647;48.840;9.314;2023-02-20T21:28:36;4.00;1.00
1309;DHT22;647;48.840;9.314;2023-02-20T21:31:03;4.00;1.00
1309;DHT22;647;48.840;9.314;2023-02-20T21:33:30;3.90;1.00
1309;DHT22;647;48.840;9.314;2023-02-20T21:35:57;3.90;1.00
1309;DHT22;647;48.840;9.314;2023-02-20T21:38:26;3.90;1.00
1309;DHT22;647;48.840;9.314;2023-02-20T21:40:54;4.00;1.00
1309;DHT22;647;48.840;9.314;2023-02-20T21:43:21;3.90;1.00
1309;DHT22;647;48.840;9.314;2023-02-20T21:46:05;3.60;1.00
1309;DHT22;647;48.840;9.314;2023-02-20T21:48:34;3.60;1.00
1309;DHT22;647;48.840;9.314;2023-02-20T21:51:01;3.70;1.00
1309;DHT22;647;48.840;9.314;2023-02-20T21:53:27;3.70;1.00
1309;DHT22;647;48.840;9.314;2023-02-20T21:55:55;3.70;1.00
1309;DHT22;647;48.840;9.314;2023-02-20T21:58:22;3.80;1.00
1309;DHT22;647;48.840;9.314;2023-02-20T22:01:03;3.70;1.00
1309;DHT22;647;48.840;9.314;2023-02-20T22:03:29;3.60;1.00
1309;DHT22;647;48.840;9.314;2023-02-20T22:05:54;3.50;1.00
1309;DHT22;647;48.840;9.314;2023-02-20T22:08:20;3.50;1.00
1309;DHT22;647;48.840;9.314;2023-02-20T22:11:06;3.50;1.00
1309;DHT22;647;48.840;9.314;2023-02-20T22:13:50;3.50;1.00
1309;DHT22;647;48.840;9.314;2023-02-20T22:16:34;3.50;1.00
1309;DHT22;647;48.840;9.314;2023-02-20T22:19:18;3.50;1.00
1309;DHT22;647;48.840;9.314;2023-02-20T22:22:02;3.50;1.00
1309;DHT22;647;48.840;9.314;2023-02-20T22:24:46;3.50;1.00
1309;DHT22;647;48.840;9.314;2023-02-20T22:27:32;3.40;1.00
1309;DHT22;647;48.840;9.314;2023-02-20T22:30:16;3.40;1.00
1309;DHT22;647;48.840;9.314;2023-02-20T22:33:00;3.20;1.00
1309;DHT22;647;48.840;9.314;2023-02-20T22:35:44;3.30;1.00
1309;DHT22;647;48.840;9.314;2023-02-20T22:38:28;3.30;1.00
1309;DHT22;647;48.840;9.314;2023-02-20T22:41:17;3.30;1.00
1309;DHT22;647;48.840;9.314;2023-02-20T22:44:03;3.20;1.00
1309;DHT22;647;48.840;9.314;2023-02-20T22:46:47;3.10;1.00
1309;DHT22;647;48.840;9.314;2023-02-20T22:49:31;3.00;1.00
1309;DHT22;647;48.840;9.314;2023-02-20T22:52:18;2.90;1.00
1309;DHT22;647;48.840;9.314;2023-02-20T22:55:04;2.90;1.00
1309;DHT22;647;48.840;9.314;2023-02-20T23:01:08;3.00;1.00
1309;DHT22;647;48.840;9.314;2023-02-20T23:03:52;2.80;1.00
1309;DHT22;647;48.840;9.314;2023-02-20T23:06:36;2.80;1.00
1309;DHT22;647;48.840;9.314;2023-02-20T23:09:20;2.80;1.00
1309;DHT22;647;48.840;9.314;2023-02-20T23:12:05;2.70;1.00
1309;DHT22;647;48.840;9.314;2023-02-20T23:14:50;2.60;1.00
1309;DHT22;647;48.840;9.314;2023-02-20T23:17:36;2.60;1.00
1309;DHT22;647;48.840;9.314;2023-02-20T23:20:22;2.60;1.00
1309;DHT22;647;48.840;9.314;2023-02-20T23:23:07;2.60;1.00
1309;DHT22;647;48.840;9.314;2023-02-20T23:25:51;2.70;1.00
1309;DHT22;647;48.840;9.314;2023-02-20T23:28:36;2.70;1.00
1309;DHT22;647;48.840;9.314;2023-02-20T23:31:30;2.80;1.00
1309;DHT22;647;48.840;9.314;2023-02-20T23:34:15;2.70;1.00
1309;DHT22;647;48.840;9.314;2023-02-20T23:37:00;2.60;1.00
1309;DHT22;647;48.840;9.314;2023-02-20T23:39:44;2.60;1.00
1309;DHT22;647;48.840;9.314;2023-02-20T23:42:28;2.60;1.00
1309;DHT22;647;48.840;9.314;2023-02-20T23:45:12;2.70;1.00
1309;DHT22;647;48.840;9.314;2023-02-20T23:47:56;2.70;1.00
1309;DHT22;647;48.840;9.314;2023-02-20T23:50:42;2.70;1.00
1309;DHT22;647;48.840;9.314;2023-02-20T23:53:26;2.70;1.00
1309;DHT22;647;48.840;9.314;2023-02-20T23:56:11;2.70;1.00
